createdAt,value
2018-08-11T00:00:39.069Z,39.76
2018-08-11T00:03:05.060Z,39.70
2018-08-11T00:05:31.025Z,39.55
2018-08-11T00:07:57.011Z,39.90
2018-08-11T00:10:23.083Z,39.72
2018-08-11T00:12:49.064Z,39.35
2018-08-11T00:15:15.046Z,38.97
2018-08-11T00:17:41.020Z,38.96
2018-08-11T00:20:06.965Z,38.39
2018-08-11T00:22:32.932Z,38.91
2018-08-11T00:24:58.899Z,38.34
2018-08-11T00:27:24.879Z,38.60
2018-08-11T00:29:50.832Z,40.21
2018-08-11T00:32:16.831Z,39.45
2018-08-11T00:34:42.780Z,39.34
2018-08-11T00:37:08.757Z,39.96
2018-08-11T00:39:34.738Z,39.43
2018-08-11T00:42:00.701Z,39.40
2018-08-11T00:44:26.659Z,39.34
2018-08-11T00:46:52.692Z,39.15
2018-08-11T00:49:18.670Z,38.74
2018-08-11T00:51:44.615Z,39.21
2018-08-11T00:54:10.587Z,38.52
2018-08-11T00:56:36.565Z,38.27
2018-08-11T00:59:02.518Z,39.02
2018-08-11T01:01:28.495Z,38.59
2018-08-11T01:03:54.462Z,39.37
2018-08-11T01:06:20.423Z,39.26
2018-08-11T01:08:46.397Z,39.08
2018-08-11T01:11:12.389Z,39.93
2018-08-11T01:13:38.426Z,39.60
2018-08-11T01:16:04.381Z,38.27
2018-08-11T01:18:30.348Z,39.11
2018-08-11T01:20:56.389Z,39.59
2018-08-11T01:23:22.680Z,39.81
2018-08-11T01:25:48.644Z,38.68
2018-08-11T01:28:14.620Z,39.03
2018-08-11T01:30:40.587Z,39.99
2018-08-11T01:33:06.533Z,39.67
2018-08-11T01:35:32.488Z,38.76
2018-08-11T01:37:58.535Z,39.03
2018-08-11T01:40:24.513Z,39.00
2018-08-11T01:42:50.515Z,40.02
2018-08-11T01:45:16.488Z,39.89
2018-08-11T01:47:42.462Z,40.09
2018-08-11T01:50:08.422Z,40.40
2018-08-11T01:52:34.375Z,42.15
2018-08-11T01:55:00.357Z,41.57
2018-08-11T01:57:26.312Z,41.49
2018-08-11T01:59:52.299Z,41.69
2018-08-11T02:02:18.271Z,42.61
2018-08-11T02:04:44.263Z,41.62
2018-08-11T02:07:10.205Z,41.41
2018-08-11T02:09:36.165Z,41.60
2018-08-11T02:12:02.146Z,41.41
2018-08-11T02:14:28.109Z,41.08
2018-08-11T02:16:54.068Z,42.37
2018-08-11T02:19:20.028Z,42.61
2018-08-11T02:21:45.972Z,42.17
2018-08-11T02:24:11.943Z,41.30
2018-08-11T02:26:37.964Z,41.85
2018-08-11T02:29:03.936Z,41.85
2018-08-11T02:31:29.963Z,42.68
2018-08-11T02:33:55.924Z,43.09
2018-08-11T02:36:21.880Z,42.81
2018-08-11T02:38:47.828Z,43.40
2018-08-11T02:41:13.815Z,43.46
2018-08-11T02:43:39.758Z,44.12
2018-08-11T02:46:05.716Z,43.09
2018-08-11T02:48:31.684Z,42.70
2018-08-11T02:50:57.642Z,43.76
2018-08-11T02:53:23.615Z,43.94
2018-08-11T02:55:49.568Z,43.78
2018-08-11T02:58:15.527Z,44.39
2018-08-11T03:00:41.507Z,44.49
2018-08-11T03:03:07.480Z,43.80
2018-08-11T03:05:33.447Z,43.88
2018-08-11T03:07:59.419Z,43.52
2018-08-11T03:10:25.397Z,44.03
2018-08-11T03:12:51.388Z,44.45
2018-08-11T03:15:17.369Z,44.12
2018-08-11T03:17:43.304Z,43.77
2018-08-11T03:20:09.268Z,43.88
2018-08-11T03:22:35.267Z,44.43
2018-08-11T03:25:01.211Z,44.46
2018-08-11T03:27:27.217Z,43.32
2018-08-11T03:29:53.186Z,44.72
2018-08-11T03:32:19.162Z,44.54
2018-08-11T03:34:45.182Z,44.33
2018-08-11T03:37:11.142Z,44.13
2018-08-11T03:39:37.093Z,43.54
2018-08-11T03:42:03.123Z,43.80
2018-08-11T03:44:29.078Z,43.37
2018-08-11T03:46:55.041Z,44.55
2018-08-11T03:49:21.012Z,43.24
2018-08-11T03:51:46.971Z,44.18
2018-08-11T03:54:12.926Z,43.83
2018-08-11T03:56:38.927Z,44.57
2018-08-11T03:59:04.889Z,44.33
2018-08-11T04:01:30.851Z,43.38
2018-08-11T04:03:56.829Z,43.81
2018-08-11T04:06:22.796Z,44.10
2018-08-11T04:08:48.747Z,43.87
2018-08-11T04:11:14.732Z,43.74
2018-08-11T04:13:40.696Z,43.50
2018-08-11T04:16:06.659Z,44.23
2018-08-11T04:18:32.624Z,44.40
2018-08-11T04:20:58.621Z,43.64
2018-08-11T04:23:24.562Z,44.28
2018-08-11T04:25:50.597Z,44.68
2018-08-11T04:28:16.554Z,43.40
2018-08-11T04:30:42.500Z,44.16
2018-08-11T04:33:08.452Z,44.19
2018-08-11T04:35:34.460Z,44.22
2018-08-11T04:38:00.459Z,45.07
2018-08-11T04:40:26.408Z,44.21
2018-08-11T04:42:52.440Z,43.84
2018-08-11T04:45:18.395Z,43.22
2018-08-11T04:47:44.373Z,43.98
2018-08-11T04:50:10.357Z,43.65
2018-08-11T04:52:36.323Z,44.06
2018-08-11T04:55:02.285Z,43.80
2018-08-11T04:57:28.292Z,45.17
2018-08-11T04:59:54.267Z,44.26
2018-08-11T05:02:20.211Z,45.15
2018-08-11T05:04:46.192Z,44.55
2018-08-11T05:07:12.143Z,44.57
2018-08-11T05:09:38.159Z,44.30
2018-08-11T05:12:04.755Z,44.79
2018-08-11T05:14:30.722Z,44.73
2018-08-11T05:16:56.679Z,45.64
2018-08-11T05:19:22.618Z,45.19
2018-08-11T05:21:48.570Z,44.97
2018-08-11T05:24:14.541Z,45.63
2018-08-11T05:26:40.550Z,45.54
2018-08-11T05:29:08.674Z,45.60
2018-08-11T05:31:34.627Z,45.29
2018-08-11T05:34:00.666Z,45.49
2018-08-11T05:36:26.652Z,44.41
2018-08-11T05:38:52.615Z,44.73
2018-08-11T05:41:18.605Z,45.59
2018-08-11T05:43:44.540Z,44.87
2018-08-11T05:46:10.502Z,45.30
2018-08-11T05:48:36.464Z,45.42
2018-08-11T05:51:02.436Z,45.24
2018-08-11T05:53:28.407Z,44.73
2018-08-11T05:55:54.350Z,45.50
2018-08-11T05:58:20.319Z,45.48
2018-08-11T06:00:46.278Z,45.56
2018-08-11T06:03:12.241Z,44.79
2018-08-11T06:05:38.214Z,44.59
2018-08-11T06:08:04.208Z,44.56
2018-08-11T06:10:30.200Z,44.28
2018-08-11T06:12:56.152Z,45.00
2018-08-11T06:15:22.111Z,45.01
2018-08-11T06:17:48.087Z,44.08
2018-08-11T06:20:14.103Z,44.57
2018-08-11T06:22:40.076Z,45.09
2018-08-11T06:25:06.048Z,44.37
2018-08-11T06:27:32.006Z,44.35
2018-08-11T06:29:57.972Z,45.55
2018-08-11T06:32:23.937Z,45.56
2018-08-11T06:34:49.913Z,44.95
2018-08-11T06:37:15.899Z,45.38
2018-08-11T06:39:41.852Z,45.00
2018-08-11T06:42:07.824Z,45.53
2018-08-11T06:44:33.796Z,44.58
2018-08-11T06:46:59.800Z,44.41
2018-08-11T06:49:25.725Z,44.44
2018-08-11T06:51:51.681Z,43.95
2018-08-11T06:54:17.644Z,44.93
2018-08-11T06:56:43.584Z,45.25
2018-08-11T06:59:09.551Z,44.78
2018-08-11T07:01:35.533Z,45.60
2018-08-11T07:04:01.525Z,45.21
2018-08-11T07:06:27.557Z,44.98
2018-08-11T07:08:53.498Z,45.25
2018-08-11T07:11:19.444Z,45.23
2018-08-11T07:13:45.415Z,44.50
2018-08-11T07:16:11.409Z,45.01
2018-08-11T07:18:37.377Z,44.01
2018-08-11T07:21:03.349Z,44.71
2018-08-11T07:23:29.306Z,45.04
2018-08-11T07:25:55.343Z,44.77
2018-08-11T07:28:21.325Z,45.66
2018-08-11T07:30:47.320Z,44.70
2018-08-11T07:33:13.336Z,45.41
2018-08-11T07:35:39.364Z,44.36
2018-08-11T07:38:05.407Z,44.56
2018-08-11T07:40:31.431Z,44.47
2018-08-11T07:42:57.452Z,43.60
2018-08-11T07:45:23.487Z,42.38
2018-08-11T07:47:49.532Z,42.80
2018-08-11T07:50:15.570Z,42.63
2018-08-11T07:52:41.556Z,44.51
2018-08-11T07:55:07.541Z,42.66
2018-08-11T07:57:33.483Z,44.71
2018-08-11T07:59:59.478Z,44.47
2018-08-11T08:02:25.482Z,42.44
2018-08-11T08:04:51.467Z,42.25
2018-08-11T08:07:17.422Z,42.14
2018-08-11T08:09:43.447Z,42.92
2018-08-11T08:12:09.409Z,42.29
2018-08-11T08:14:35.392Z,42.80
2018-08-11T08:17:01.444Z,41.18
2018-08-11T08:19:27.400Z,42.68
2018-08-11T08:21:53.373Z,42.56
2018-08-11T08:24:19.355Z,40.63
2018-08-11T08:26:45.397Z,41.79
2018-08-11T08:29:11.335Z,41.19
2018-08-11T08:31:37.325Z,39.96
2018-08-11T08:34:03.292Z,40.53
2018-08-11T08:36:29.275Z,41.55
2018-08-11T08:38:55.239Z,39.98
2018-08-11T08:41:21.208Z,39.91
2018-08-11T08:43:47.179Z,40.19
2018-08-11T08:46:13.133Z,40.05
2018-08-11T08:48:39.279Z,40.21
2018-08-11T08:51:05.253Z,38.64
2018-08-11T08:53:31.234Z,39.30
2018-08-11T08:55:57.284Z,38.71
2018-08-11T08:58:23.257Z,40.00
2018-08-11T09:00:50.469Z,40.39
2018-08-11T09:03:16.447Z,40.13
2018-08-11T09:05:42.427Z,41.14
2018-08-11T09:08:08.411Z,40.58
2018-08-11T09:10:34.400Z,41.32
2018-08-11T09:13:00.374Z,41.12
2018-08-11T09:15:26.364Z,41.23
2018-08-11T09:17:52.358Z,40.24
2018-08-11T09:20:18.374Z,40.19
2018-08-11T09:22:44.343Z,40.69
2018-08-11T09:25:10.320Z,40.13
2018-08-11T09:27:36.298Z,41.75
2018-08-11T09:30:02.308Z,41.02
2018-08-11T09:32:28.273Z,41.00
2018-08-11T09:34:54.250Z,41.46
2018-08-11T09:37:20.221Z,41.41
2018-08-11T09:39:46.173Z,41.11
2018-08-11T09:42:12.171Z,40.75
2018-08-11T09:44:38.165Z,41.07
2018-08-11T09:47:04.165Z,40.71
2018-08-11T09:49:30.175Z,41.06
2018-08-11T09:51:56.155Z,41.42
2018-08-11T09:54:22.195Z,41.62
2018-08-11T09:56:48.187Z,40.73
2018-08-11T09:59:14.180Z,43.16
2018-08-11T10:01:40.237Z,40.55
2018-08-11T10:04:06.219Z,39.88
2018-08-11T10:06:32.236Z,40.98
2018-08-11T10:08:58.212Z,40.93
2018-08-11T10:11:24.267Z,40.95
2018-08-11T10:13:50.269Z,39.80
2018-08-11T10:16:16.254Z,41.12
2018-08-11T10:18:42.249Z,40.08
2018-08-11T10:21:08.259Z,41.43
2018-08-11T10:23:34.280Z,40.09
2018-08-11T10:26:00.332Z,41.77
2018-08-11T10:28:26.388Z,40.35
2018-08-11T10:30:52.379Z,41.55
2018-08-11T10:33:18.343Z,39.39
2018-08-11T10:35:44.306Z,40.11
2018-08-11T10:38:10.276Z,39.53
2018-08-11T10:40:36.253Z,40.05
2018-08-11T10:43:02.376Z,40.34
2018-08-11T10:45:28.421Z,39.52
2018-08-11T10:47:54.525Z,38.75
2018-08-11T10:50:20.501Z,39.26
2018-08-11T10:52:46.533Z,38.43
2018-08-11T10:55:12.642Z,39.10
2018-08-11T10:57:38.573Z,40.01
2018-08-11T11:00:04.580Z,38.36
2018-08-11T11:02:30.587Z,40.71
2018-08-11T11:04:56.600Z,38.18
2018-08-11T11:07:22.652Z,38.76
2018-08-11T11:09:48.635Z,39.15
2018-08-11T11:12:14.618Z,38.64
2018-08-11T11:14:40.651Z,40.23
2018-08-11T11:17:06.681Z,38.54
2018-08-11T11:19:32.711Z,38.75
2018-08-11T11:21:58.702Z,38.00
2018-08-11T11:24:24.667Z,37.97
2018-08-11T11:26:50.688Z,38.72
2018-08-11T11:29:16.682Z,38.25
2018-08-11T11:31:42.682Z,39.93
2018-08-11T11:34:08.726Z,41.20
2018-08-11T11:36:34.742Z,39.28
2018-08-11T11:39:00.722Z,39.07
2018-08-11T11:41:26.839Z,39.04
2018-08-11T11:43:52.817Z,39.95
2018-08-11T11:46:18.791Z,38.64
2018-08-11T11:48:44.807Z,38.45
2018-08-11T11:51:10.891Z,38.98
2018-08-11T11:53:36.887Z,37.44
2018-08-11T11:56:02.880Z,38.59
2018-08-11T11:58:28.841Z,38.99
2018-08-11T12:00:54.845Z,39.18
2018-08-11T12:03:20.818Z,37.16
2018-08-11T12:05:46.899Z,37.85
2018-08-11T12:08:12.949Z,37.21
2018-08-11T12:10:38.950Z,36.64
2018-08-11T12:13:04.937Z,38.34
2018-08-11T12:15:31.017Z,37.34
2018-08-11T12:17:57.035Z,36.62
2018-08-11T12:20:22.989Z,36.76
2018-08-11T12:22:50.188Z,38.28
2018-08-11T12:25:16.164Z,38.14
2018-08-11T12:27:42.154Z,40.43
2018-08-11T12:30:08.107Z,38.13
2018-08-11T12:32:34.113Z,39.17
2018-08-11T12:35:00.137Z,39.98
2018-08-11T12:37:26.200Z,38.85
2018-08-11T12:39:52.198Z,38.53
2018-08-11T12:42:18.212Z,39.86
2018-08-11T12:44:44.195Z,38.77
2018-08-11T12:47:10.199Z,38.19
2018-08-11T12:49:36.167Z,37.93
2018-08-11T12:52:02.147Z,38.49
2018-08-11T12:54:28.103Z,37.87
2018-08-11T12:56:54.970Z,38.69
2018-08-11T12:59:21.002Z,37.15
2018-08-11T13:01:46.976Z,36.96
2018-08-11T13:04:12.967Z,38.95
2018-08-11T13:06:38.963Z,38.40
2018-08-11T13:09:04.968Z,37.30
2018-08-11T13:11:31.065Z,38.85
2018-08-11T13:13:57.038Z,38.60
2018-08-11T13:16:23.062Z,36.83
2018-08-11T13:18:49.126Z,38.47
2018-08-11T13:21:15.136Z,37.62
2018-08-11T13:23:41.130Z,37.48
2018-08-11T13:26:07.111Z,36.90
2018-08-11T13:28:33.147Z,38.83
2018-08-11T13:30:59.147Z,37.59
2018-08-11T13:33:25.138Z,38.40
2018-08-11T13:35:51.191Z,37.72
2018-08-11T13:38:17.307Z,38.22
2018-08-11T13:40:43.302Z,37.94
2018-08-11T13:43:09.279Z,38.57
2018-08-11T13:45:35.299Z,37.91
2018-08-11T13:48:01.362Z,37.73
2018-08-11T13:50:27.472Z,38.23
2018-08-11T13:52:53.533Z,35.27
2018-08-11T13:55:19.556Z,36.30
2018-08-11T13:57:45.600Z,35.51
2018-08-11T14:00:11.634Z,35.62
2018-08-11T14:02:37.642Z,35.65
2018-08-11T14:05:03.648Z,36.73
2018-08-11T14:07:29.722Z,35.88
2018-08-11T14:09:55.701Z,37.04
2018-08-11T14:12:21.746Z,38.06
2018-08-11T14:14:47.747Z,38.32
2018-08-11T14:17:13.805Z,37.63
2018-08-11T14:19:39.819Z,36.73
2018-08-11T14:22:05.859Z,36.94
2018-08-11T14:24:31.848Z,38.03
2018-08-11T14:26:57.832Z,38.31
2018-08-11T14:29:23.812Z,37.72
2018-08-11T14:31:49.805Z,37.01
2018-08-11T14:34:15.791Z,38.00
2018-08-11T14:36:41.746Z,36.99
2018-08-11T14:39:07.765Z,39.10
2018-08-11T14:41:33.801Z,37.95
2018-08-11T14:43:59.787Z,36.30
2018-08-11T14:46:25.840Z,38.24
2018-08-11T14:48:51.843Z,36.87
2018-08-11T14:51:17.855Z,37.07
2018-08-11T14:53:43.855Z,37.67
2018-08-11T14:56:09.881Z,37.42
2018-08-11T14:58:35.853Z,38.46
2018-08-11T15:01:01.888Z,38.85
2018-08-11T15:03:27.940Z,38.10
2018-08-11T15:05:53.927Z,38.54
2018-08-11T15:08:19.930Z,39.71
2018-08-11T15:10:45.895Z,37.89
2018-08-11T15:13:11.901Z,38.97
2018-08-11T15:15:37.894Z,38.84
2018-08-11T15:18:03.848Z,37.44
2018-08-11T15:20:29.872Z,39.55
2018-08-11T15:22:55.888Z,37.29
2018-08-11T15:25:21.907Z,38.74
2018-08-11T15:27:47.866Z,39.31
2018-08-11T15:30:13.840Z,37.51
2018-08-11T15:32:39.869Z,38.03
2018-08-11T15:35:05.841Z,37.74
2018-08-11T15:37:31.849Z,37.59
2018-08-11T15:39:57.830Z,37.94
2018-08-11T15:42:23.816Z,38.22
2018-08-11T15:44:49.824Z,38.55
2018-08-11T15:47:15.803Z,38.79
2018-08-11T15:49:41.799Z,39.53
2018-08-11T15:52:07.769Z,40.14
2018-08-11T15:54:33.754Z,38.82
2018-08-11T15:56:59.741Z,39.29
2018-08-11T15:59:25.729Z,38.79
2018-08-11T16:01:51.713Z,38.03
2018-08-11T16:04:17.690Z,38.60
2018-08-11T16:06:43.697Z,39.06
2018-08-11T16:09:09.678Z,36.76
2018-08-11T16:11:35.652Z,39.14
2018-08-11T16:14:01.637Z,39.29
2018-08-11T16:16:27.632Z,40.01
2018-08-11T16:18:53.622Z,40.21
2018-08-11T16:21:19.631Z,39.81
2018-08-11T16:23:45.621Z,39.46
2018-08-11T16:26:11.655Z,39.46
2018-08-11T16:28:37.631Z,38.66
2018-08-11T16:31:03.639Z,39.58
2018-08-11T16:33:29.610Z,39.41
2018-08-11T16:35:55.635Z,39.09
2018-08-11T16:38:21.628Z,38.17
2018-08-11T16:40:47.598Z,39.14
2018-08-11T16:43:13.558Z,38.23
2018-08-11T16:45:39.540Z,39.64
2018-08-11T16:48:05.524Z,40.47
2018-08-11T16:50:31.517Z,39.94
2018-08-11T16:52:57.547Z,39.83
2018-08-11T16:55:23.517Z,41.13
2018-08-11T16:57:49.512Z,41.01
2018-08-11T17:00:15.482Z,42.58
2018-08-11T17:02:41.501Z,41.05
2018-08-11T17:05:07.468Z,40.79
2018-08-11T17:07:33.526Z,42.29
2018-08-11T17:09:59.537Z,41.65
2018-08-11T17:12:25.553Z,41.77
2018-08-11T17:14:51.678Z,42.97
2018-08-11T17:17:17.630Z,41.79
2018-08-11T17:19:43.596Z,42.40
2018-08-11T17:22:09.688Z,42.86
2018-08-11T17:24:35.686Z,43.08
2018-08-11T17:27:01.684Z,42.03
2018-08-11T17:29:27.757Z,42.48
2018-08-11T17:31:53.730Z,41.53
2018-08-11T17:34:19.704Z,42.15
2018-08-11T17:36:45.679Z,42.30
2018-08-11T17:39:11.699Z,42.54
2018-08-11T17:41:37.741Z,41.24
2018-08-11T17:44:03.833Z,42.15
2018-08-11T17:46:29.775Z,42.38
2018-08-11T17:48:55.799Z,42.00
2018-08-11T17:51:21.755Z,41.46
2018-08-11T17:53:47.737Z,42.06
2018-08-11T17:56:13.742Z,41.98
2018-08-11T17:58:39.780Z,42.17
2018-08-11T18:01:05.778Z,41.75
2018-08-11T18:03:31.741Z,41.15
2018-08-11T18:05:57.743Z,42.08
2018-08-11T18:08:23.710Z,42.87
2018-08-11T18:10:49.692Z,41.91
2018-08-11T18:13:15.677Z,42.35
2018-08-11T18:15:41.656Z,42.13
2018-08-11T18:18:07.695Z,41.78
2018-08-11T18:20:33.687Z,42.50
2018-08-11T18:22:59.713Z,41.80
2018-08-11T18:25:25.695Z,42.55
2018-08-11T18:27:51.726Z,43.02
2018-08-11T18:30:17.719Z,42.01
2018-08-11T18:32:43.713Z,41.93
2018-08-11T18:35:09.702Z,42.87
2018-08-11T18:37:35.712Z,42.09
2018-08-11T18:40:01.690Z,42.27
2018-08-11T18:42:27.669Z,43.02
2018-08-11T18:44:53.647Z,41.97
2018-08-11T18:47:19.738Z,42.09
2018-08-11T18:49:45.707Z,41.96
2018-08-11T18:52:11.818Z,43.38
2018-08-11T18:54:37.763Z,42.71
2018-08-11T18:57:03.724Z,42.39
2018-08-11T18:59:29.693Z,43.04
2018-08-11T19:01:55.652Z,43.12
2018-08-11T19:04:21.641Z,43.81
2018-08-11T19:06:47.598Z,42.56
2018-08-11T19:09:13.604Z,42.82
2018-08-11T19:11:39.603Z,42.67
2018-08-11T19:14:05.589Z,42.87
2018-08-11T19:16:31.561Z,43.37
2018-08-11T19:18:57.738Z,44.28
2018-08-11T19:21:23.839Z,43.77
2018-08-11T19:23:49.833Z,43.74
2018-08-11T19:26:15.835Z,43.54
2018-08-11T19:28:41.858Z,43.60
2018-08-11T19:31:07.851Z,42.70
2018-08-11T19:33:33.903Z,43.53
2018-08-11T19:35:59.865Z,43.26
2018-08-11T19:38:25.807Z,42.90
2018-08-11T19:40:51.800Z,43.74
2018-08-11T19:43:17.817Z,42.71
2018-08-11T19:45:43.842Z,44.18
2018-08-11T19:48:09.805Z,42.31
2018-08-11T19:50:35.788Z,42.15
2018-08-11T19:53:01.804Z,41.38
2018-08-11T19:55:27.767Z,40.88
2018-08-11T19:57:53.773Z,39.99
2018-08-11T20:00:19.758Z,38.79
2018-08-11T20:02:45.794Z,39.74
2018-08-11T20:05:11.810Z,40.16
2018-08-11T20:07:37.821Z,39.95
2018-08-11T20:10:03.811Z,39.70
2018-08-11T20:12:29.775Z,39.92
2018-08-11T20:14:55.827Z,39.46
2018-08-11T20:17:21.831Z,38.47
2018-08-11T20:19:47.837Z,38.20
2018-08-11T20:22:13.815Z,38.85
2018-08-11T20:24:39.842Z,39.38
2018-08-11T20:27:05.816Z,38.50
2018-08-11T20:29:31.896Z,39.17
2018-08-11T20:31:57.947Z,39.78
2018-08-11T20:34:23.945Z,39.85
2018-08-11T20:36:50.007Z,37.85
2018-08-11T20:39:16.004Z,40.09
2018-08-11T20:41:42.037Z,39.74
2018-08-11T20:44:08.054Z,39.65
2018-08-11T20:46:34.066Z,39.80
2018-08-11T20:49:00.115Z,39.94
2018-08-11T20:51:26.080Z,39.20
2018-08-11T20:53:52.116Z,39.78
2018-08-11T20:56:18.099Z,38.87
2018-08-11T20:58:44.092Z,39.72
2018-08-11T21:01:10.065Z,39.42
2018-08-11T21:03:36.053Z,39.32
2018-08-11T21:06:02.101Z,38.06
2018-08-11T21:08:28.085Z,38.82
2018-08-11T21:10:54.096Z,38.44
2018-08-11T21:13:20.067Z,39.28
2018-08-11T21:15:46.112Z,38.33
2018-08-11T21:18:12.078Z,39.52
2018-08-11T21:20:38.073Z,39.50
2018-08-11T21:23:04.066Z,39.87
2018-08-11T21:25:30.034Z,39.08
2018-08-11T21:27:56.008Z,38.97
2018-08-11T21:30:21.974Z,39.36
2018-08-11T21:32:47.993Z,39.78
2018-08-11T21:35:13.960Z,39.69
2018-08-11T21:37:39.947Z,40.00
2018-08-11T21:40:05.914Z,39.73
2018-08-11T21:42:31.896Z,39.47
2018-08-11T21:44:57.870Z,38.59
2018-08-11T21:47:23.848Z,39.56
2018-08-11T21:49:49.910Z,39.13
2018-08-11T21:52:15.913Z,40.40
2018-08-11T21:54:41.880Z,40.17
2018-08-11T21:57:07.873Z,40.22
2018-08-11T21:59:33.864Z,41.34
2018-08-11T22:01:59.861Z,41.10
2018-08-11T22:04:25.933Z,41.58
2018-08-11T22:06:51.910Z,41.59
2018-08-11T22:09:17.880Z,40.55
2018-08-11T22:11:43.906Z,41.13
2018-08-11T22:14:09.934Z,40.98
2018-08-11T22:16:35.940Z,41.75
2018-08-11T22:19:02.564Z,41.24
2018-08-11T22:21:28.553Z,42.13
2018-08-11T22:23:54.533Z,41.41
2018-08-11T22:26:20.574Z,41.43
2018-08-11T22:28:46.559Z,42.07
2018-08-11T22:31:12.545Z,41.94
2018-08-11T22:33:38.524Z,42.39
2018-08-11T22:36:04.539Z,41.75
2018-08-11T22:38:30.557Z,42.21
2018-08-11T22:40:56.629Z,42.48
2018-08-11T22:43:22.583Z,42.50
2018-08-11T22:45:48.572Z,42.73
2018-08-11T22:48:14.583Z,42.00
2018-08-11T22:50:40.579Z,42.64
2018-08-11T22:53:06.552Z,42.02
2018-08-11T22:55:32.572Z,41.66
2018-08-11T22:57:58.564Z,42.50
2018-08-11T23:00:24.519Z,42.49
2018-08-11T23:02:50.500Z,41.77
2018-08-11T23:05:16.501Z,42.52
2018-08-11T23:07:42.467Z,41.78
2018-08-11T23:10:08.424Z,42.46
2018-08-11T23:12:34.663Z,41.63
2018-08-11T23:15:00.685Z,41.96
2018-08-11T23:17:26.651Z,42.59
2018-08-11T23:19:52.626Z,42.68
2018-08-11T23:22:18.606Z,41.88
2018-08-11T23:24:44.573Z,42.44
2018-08-11T23:27:10.868Z,42.45
2018-08-11T23:29:36.851Z,41.93
2018-08-11T23:32:02.954Z,42.69
2018-08-11T23:34:28.824Z,41.77
2018-08-11T23:36:54.807Z,42.40
2018-08-11T23:39:20.784Z,42.87
2018-08-11T23:41:46.760Z,42.76
2018-08-11T23:44:12.756Z,42.74
2018-08-11T23:46:38.743Z,42.01
2018-08-11T23:49:04.737Z,42.78
2018-08-11T23:51:30.800Z,42.08
2018-08-11T23:53:56.756Z,42.37
2018-08-11T23:56:22.741Z,42.83
2018-08-11T23:58:48.709Z,42.67
